This demonstration page uses our WeatherBlox Daily Observations layout. Learn more.

36.17497, -115.13722

Hourly Observations for September 16, 2018

Temp ( °F °C ) Dew Point ( °F °C ) Humidity (%) Winds ( mph kmh ) Pressure ( in mb ) Visibility ( mi km ) Precip ( " mm )
12:53 am 00:53 Clear 86 30 30 -1.1 13 13 S 9 15 29.77 1008 10 16.09344 0 0
1:53 am 01:53 Clear 84 28.9 31 -0.6 15 15 SSW 6 9 29.77 1008 10 16.09344 0 0
2:53 am 02:53 Clear 81 27.2 32 0 17 17 SSE 5 7 29.77 1008 10 16.09344 0 0
3:53 am 03:53 Clear 80 26.7 34 1.1 19 19 SW 3 6 29.77 1008 10 16.09344 0 0
4:53 am 04:53 Clear 80 26.7 35 1.7 20 20 SSW 5 7 29.77 1008 10 16.09344 0 0
5:53 am 05:53 Clear 77 25 35 1.7 22 22 NNE 3 6 29.8 1009 10 16.09344 0 0
6:53 am 06:53 Sunny 75 23.9 35 1.7 23 23 Calm 29.83 1010 10 16.09344 0 0
7:53 am 07:53 Sunny 80 26.7 36 2.2 20 20 Calm 29.85 1011 10 16.09344 0 0
8:53 am 08:53 Sunny 86 30 35 1.7 16 16 S 9 15 29.85 1011 10 16.09344 0 0
9:53 am 09:53 Sunny 89 31.7 36 2.2 15 15 SSE 5 7 29.85 1011 10 16.09344 0 0
10:53 am 10:53 Sunny 93 33.9 36 2.2 13 13 S 16 26 29.85 1011 10 16.09344 0 0
11:53 am 11:53 Sunny 96 35.6 37 2.8 13 13 SSE 15 24 29.83 1010 10 16.09344 0 0
12:17 pm 12:17 Sunny 97 36.1 37 2.8 12 12 SSW 15 24 29.68 1005 10 16.09344 0 0
12:53 pm 12:53 Sunny 98 36.7 38 3.3 12 12 S 13 20 29.8 1009 10 16.09344 0 0
1:53 pm 13:53 Sunny 99 37.2 41 5 14 14 WSW 16 26 29.8 1009 10 16.09344 0 0
2:53 pm 14:53 Sunny 100 37.8 41 5 13 13 SW 16 26 29.77 1008 10 16.09344 0 0
3:53 pm 15:53 Sunny 100 37.8 41 5 13 13 WSW 21 33 29.74 1007 10 16.09344 0 0
4:53 pm 16:53 Sunny 99 37.2 42 5.6 14 14 WSW 21 33 29.74 1007 10 16.09344 0 0
5:53 pm 17:53 Sunny 97 36.1 44 6.7 16 16 WSW 16 26 29.74 1007 10 16.09344 0 0
6:53 pm 18:53 Clear 94 34.4 41 5 16 16 W 13 20 29.77 1008 10 16.09344 0 0
7:53 pm 19:53 Clear 93 33.9 39 3.9 15 15 W 13 20 29.77 1008 10 16.09344 0 0
8:53 pm 20:53 Clear 91 32.8 38 3.3 15 15 W 9 15 29.77 1008 10 16.09344 0 0
9:53 pm 21:53 Clear 87 30.6 38 3.3 18 18 ESE 3 6 29.8 1009 10 16.09344 0 0
10:53 pm 22:53 Clear 87 30.6 39 3.9 18 18 Calm 29.8 1009 10 16.09344 0 0
11:53 pm 23:53 Clear 86 30 40 4.4 20 20 SW 7 11 29.8 1009 10 16.09344 0 0

Powered by AerisWeather